createdAt,value
2018-02-03T00:00:25.006Z,3.01
2018-02-03T00:06:29.518Z,3.02
2018-02-03T00:12:33.997Z,3.01
2018-02-03T00:18:38.450Z,3.00
2018-02-03T00:24:43.704Z,3.01
2018-02-03T00:30:48.315Z,2.98
2018-02-03T00:36:53.010Z,2.98
2018-02-03T00:42:57.619Z,2.95
2018-02-03T00:49:02.085Z,2.94
2018-02-03T00:55:06.556Z,2.92
2018-02-03T01:01:11.799Z,2.94
2018-02-03T01:07:16.263Z,2.97
2018-02-03T01:13:20.796Z,2.96
2018-02-03T01:19:26.021Z,2.96
2018-02-03T01:25:30.528Z,2.94
2018-02-03T01:31:35.034Z,2.91
2018-02-03T01:37:39.621Z,2.91
2018-02-03T01:43:44.141Z,2.85
2018-02-03T01:49:48.640Z,2.81
2018-02-03T01:55:53.710Z,2.77
2018-02-03T02:01:58.191Z,2.76
2018-02-03T02:08:02.677Z,2.76
2018-02-03T02:14:07.130Z,2.68
2018-02-03T02:20:11.597Z,2.53
2018-02-03T02:26:16.369Z,2.40
2018-02-03T02:32:21.097Z,2.24
2018-02-03T02:38:25.599Z,2.19
2018-02-03T02:44:30.325Z,2.21
2018-02-03T02:50:34.875Z,2.25
2018-02-03T02:56:39.484Z,2.26
2018-02-03T03:02:44.071Z,2.28
2018-02-03T03:08:49.182Z,2.24
2018-02-03T03:14:53.894Z,2.24
2018-02-03T03:20:58.522Z,2.23
2018-02-03T03:27:03.033Z,2.20
2018-02-03T03:33:07.538Z,2.20
2018-02-03T03:39:12.208Z,2.18
2018-02-03T03:45:16.674Z,2.20
2018-02-03T03:51:22.407Z,2.23
2018-02-03T03:57:27.650Z,2.27
2018-02-03T04:03:32.150Z,2.28
2018-02-03T04:09:36.642Z,2.21
2018-02-03T04:15:41.228Z,2.27
2018-02-03T04:21:45.778Z,2.21
2018-02-03T04:27:50.684Z,2.19
2018-02-03T04:33:55.953Z,2.17
2018-02-03T04:40:00.497Z,2.14
2018-02-03T04:46:04.978Z,2.04
2018-02-03T04:52:09.914Z,2.01
2018-02-03T04:58:14.481Z,2.04
2018-02-03T05:04:19.774Z,2.03
2018-02-03T05:10:24.616Z,2.04
2018-02-03T05:16:29.342Z,2.03
2018-02-03T05:22:33.823Z,2.01
2018-02-03T05:28:38.386Z,1.93
2018-02-03T05:34:42.928Z,1.91
2018-02-03T05:40:47.432Z,1.92
2018-02-03T05:46:52.142Z,1.89
2018-02-03T05:52:56.662Z,1.88
2018-02-03T05:59:01.522Z,1.85
2018-02-03T06:05:06.190Z,1.87
2018-02-03T06:11:10.814Z,1.82
2018-02-03T06:17:15.393Z,1.82
2018-02-03T06:23:21.009Z,1.84
2018-02-03T06:29:25.632Z,1.84
2018-02-03T06:35:30.135Z,1.82
2018-02-03T06:41:34.606Z,1.89
2018-02-03T06:47:40.759Z,1.92
2018-02-03T06:53:45.966Z,1.97
2018-02-03T06:59:51.646Z,1.92
2018-02-03T07:05:57.148Z,1.92
2018-02-03T07:12:01.718Z,1.89
2018-02-03T07:18:06.958Z,1.84
2018-02-03T07:24:11.456Z,1.78
2018-02-03T07:30:15.929Z,1.79
2018-02-03T07:36:20.431Z,1.83
2018-02-03T07:42:25.044Z,1.75
2018-02-03T07:48:30.257Z,1.72
2018-02-03T07:54:34.726Z,1.67
2018-02-03T08:00:39.570Z,1.65
2018-02-03T08:06:44.826Z,1.68
2018-02-03T08:12:49.537Z,1.72
2018-02-03T08:18:55.623Z,1.84
2018-02-03T08:25:00.867Z,1.92
2018-02-03T08:31:06.333Z,1.97
2018-02-03T08:37:10.802Z,2.07
2018-02-03T08:43:15.276Z,2.21
2018-02-03T08:49:19.954Z,2.33
2018-02-03T08:55:24.957Z,2.06
2018-02-03T09:01:29.485Z,1.97
2018-02-03T09:07:34.926Z,1.93
2018-02-03T09:13:39.622Z,2.01
2018-02-03T09:19:44.155Z,2.03
2018-02-03T09:25:50.075Z,2.36
2018-02-03T09:31:55.540Z,2.66
2018-02-03T09:38:00.000Z,2.66
2018-02-03T09:44:04.552Z,2.24
2018-02-03T09:50:09.304Z,2.22
2018-02-03T09:56:13.822Z,2.54
2018-02-03T10:02:18.282Z,2.91
2018-02-03T10:08:23.410Z,2.92
2018-02-03T10:14:27.938Z,2.91
2018-02-03T10:20:32.418Z,3.34
2018-02-03T10:26:37.013Z,3.05
2018-02-03T10:32:41.551Z,2.99
2018-02-03T10:38:46.417Z,3.14
2018-02-03T10:44:51.026Z,2.97
2018-02-03T10:50:55.550Z,3.07
2018-02-03T10:57:00.027Z,3.37
2018-02-03T11:03:04.564Z,3.39
2018-02-03T11:09:09.123Z,3.53
2018-02-03T11:15:13.586Z,3.33
2018-02-03T11:21:18.279Z,3.67
2018-02-03T11:27:22.727Z,3.54
2018-02-03T11:33:27.182Z,3.13
2018-02-03T11:39:31.667Z,3.07
2018-02-03T11:45:36.478Z,2.78
2018-02-03T11:51:41.085Z,2.73
2018-02-03T11:57:46.320Z,3.05
2018-02-03T12:03:51.428Z,3.00
2018-02-03T12:09:57.052Z,3.20
2018-02-03T12:16:01.529Z,3.21
2018-02-03T12:22:05.998Z,2.91
2018-02-03T12:28:10.473Z,2.80
2018-02-03T12:34:15.008Z,2.78
2018-02-03T12:40:19.711Z,2.54
2018-02-03T12:46:24.223Z,2.58
2018-02-03T12:52:28.723Z,2.60
2018-02-03T12:58:33.960Z,2.46
2018-02-03T13:04:38.420Z,2.39
2018-02-03T13:10:42.950Z,2.46
2018-02-03T13:16:47.895Z,2.57
2018-02-03T13:22:54.108Z,2.56
2018-02-03T13:28:58.616Z,2.46
2018-02-03T13:35:03.248Z,2.50
2018-02-03T13:41:08.577Z,2.53
2018-02-03T13:47:13.066Z,2.69
2018-02-03T13:53:17.596Z,2.79
2018-02-03T13:59:22.956Z,2.91
2018-02-03T14:05:27.530Z,2.89
2018-02-03T14:11:32.129Z,2.90
2018-02-03T14:17:37.482Z,2.93
2018-02-03T14:23:42.001Z,2.85
2018-02-03T14:29:47.835Z,2.76
2018-02-03T14:35:53.439Z,2.78
2018-02-03T14:41:57.957Z,2.69
2018-02-03T14:48:02.489Z,2.67
2018-02-03T14:54:06.974Z,2.61
2018-02-03T15:00:11.524Z,2.50
2018-02-03T15:06:16.045Z,2.31
2018-02-03T15:12:21.860Z,2.27
2018-02-03T15:18:26.682Z,2.26
2018-02-03T15:24:31.254Z,2.22
2018-02-03T15:30:35.706Z,2.19
2018-02-03T15:36:41.194Z,2.21
2018-02-03T15:42:45.829Z,2.18
2018-02-03T15:48:50.592Z,2.19
2018-02-03T15:54:55.312Z,2.21
2018-02-03T16:01:00.060Z,2.18
2018-02-03T16:07:04.666Z,2.14
2018-02-03T16:13:09.920Z,2.15
2018-02-03T16:19:14.373Z,2.11
2018-02-03T16:25:19.799Z,2.13
2018-02-03T16:31:24.468Z,2.12
2018-02-03T16:37:29.131Z,2.05
2018-02-03T16:43:33.640Z,2.02
2018-02-03T16:49:38.178Z,1.94
2018-02-03T16:55:43.656Z,1.95
2018-02-03T17:01:48.203Z,1.97
2018-02-03T17:07:54.293Z,2.01
2018-02-03T17:13:59.574Z,2.01
2018-02-03T17:20:04.820Z,2.01
2018-02-03T17:26:09.284Z,2.01
2018-02-03T17:32:13.897Z,2.12
2018-02-03T17:38:24.111Z,2.19
2018-02-03T17:44:28.787Z,2.13
2018-02-03T17:50:34.090Z,2.13
2018-02-03T17:56:44.055Z,2.06
2018-02-03T18:02:49.182Z,2.02
2018-02-03T18:08:53.999Z,2.01
2018-02-03T18:14:59.270Z,2.05
2018-02-03T18:21:03.918Z,2.06
2018-02-03T18:27:08.427Z,2.06
2018-02-03T18:33:12.928Z,2.06
2018-02-03T18:39:18.267Z,2.06
2018-02-03T18:45:41.421Z,2.06
2018-02-03T18:51:45.988Z,2.09
2018-02-03T18:57:51.491Z,2.14
2018-02-03T19:03:56.175Z,2.24
2018-02-03T19:10:00.796Z,2.21
2018-02-03T19:16:05.394Z,2.29
2018-02-03T19:22:09.927Z,2.31
2018-02-03T19:28:14.887Z,2.36
2018-02-03T19:34:19.561Z,2.33
2018-02-03T19:40:24.621Z,2.21
2018-02-03T19:46:29.215Z,2.10
2018-02-03T19:52:33.679Z,2.10
2018-02-03T19:58:38.240Z,2.06
2018-02-03T20:04:43.471Z,2.02
2018-02-03T20:10:48.313Z,2.04
2018-02-03T20:16:52.910Z,1.89
2018-02-03T20:22:58.185Z,1.75
2018-02-03T20:29:02.675Z,1.68
2018-02-03T20:35:07.982Z,1.65
2018-02-03T20:41:12.592Z,1.52
2018-02-03T20:47:17.208Z,1.47
2018-02-03T20:53:22.017Z,1.43
2018-02-03T20:59:26.642Z,1.37
2018-02-03T21:05:31.583Z,1.32
2018-02-03T21:11:36.195Z,1.18
2018-02-03T21:17:40.908Z,1.12
2018-02-03T21:23:45.809Z,0.97
2018-02-03T21:29:51.017Z,1.01
2018-02-03T21:35:55.728Z,0.97
2018-02-03T21:42:00.195Z,0.93
2018-02-03T21:48:04.698Z,0.84
2018-02-03T21:54:09.232Z,0.78
2018-02-03T22:00:13.698Z,0.71
2018-02-03T22:06:18.297Z,0.77
2018-02-03T22:12:23.436Z,0.78
2018-02-03T22:18:28.094Z,0.89
2018-02-03T22:24:32.617Z,0.76
2018-02-03T22:30:37.242Z,0.69
2018-02-03T22:36:41.869Z,0.65
2018-02-03T22:42:46.354Z,0.56
2018-02-03T22:48:51.283Z,0.49
2018-02-03T22:54:55.960Z,0.56
2018-02-03T23:01:06.755Z,0.48
2018-02-03T23:07:11.342Z,0.45
2018-02-03T23:13:15.885Z,0.51
2018-02-03T23:19:20.385Z,0.58
2018-02-03T23:25:24.996Z,0.60
2018-02-03T23:31:29.671Z,0.52
2018-02-03T23:37:35.711Z,0.54
2018-02-03T23:43:40.353Z,0.50
2018-02-03T23:49:44.910Z,0.41
2018-02-03T23:55:50.203Z,0.45
